createdAt,value
2017-09-27T04:00:31.137Z,10.80
2017-09-27T04:03:05.034Z,10.80
2017-09-27T04:05:34.000Z,10.90
2017-09-27T04:08:03.804Z,10.90
2017-09-27T04:10:34.883Z,10.80
2017-09-27T04:13:07.928Z,10.90
2017-09-27T04:15:36.301Z,10.90
2017-09-27T04:18:13.363Z,11.00
2017-09-27T04:20:45.702Z,10.90
2017-09-27T04:23:14.303Z,11.00
2017-09-27T04:25:46.692Z,10.90
2017-09-27T04:28:15.349Z,10.90
2017-09-27T04:30:42.944Z,10.90
2017-09-27T04:33:11.263Z,10.90
2017-09-27T04:35:39.701Z,10.80
2017-09-27T04:38:07.648Z,10.80
2017-09-27T04:40:35.545Z,10.90
2017-09-27T04:43:03.641Z,11.00
2017-09-27T04:45:32.173Z,11.10
2017-09-27T04:48:01.340Z,11.00
2017-09-27T04:50:30.772Z,11.00
2017-09-27T04:53:00.570Z,11.10
2017-09-27T04:55:28.795Z,11.00
2017-09-27T04:57:57.030Z,11.20
2017-09-27T05:00:24.735Z,11.10
2017-09-27T05:02:53.339Z,11.00
2017-09-27T05:05:23.005Z,11.00
2017-09-27T05:07:50.928Z,10.90
2017-09-27T05:10:26.281Z,11.10
2017-09-27T05:12:53.858Z,11.20
2017-09-27T05:15:22.195Z,11.30
2017-09-27T05:17:49.716Z,11.20
2017-09-27T05:20:17.300Z,11.30
2017-09-27T05:22:45.421Z,11.20
2017-09-27T05:25:13.140Z,11.20
2017-09-27T05:27:41.449Z,11.20
2017-09-27T05:30:09.300Z,11.30
2017-09-27T05:32:36.915Z,11.30
2017-09-27T05:35:05.064Z,11.30
2017-09-27T05:37:33.176Z,11.40
2017-09-27T05:40:01.101Z,11.40
2017-09-27T05:42:28.803Z,11.60
2017-09-27T05:44:57.440Z,11.90
2017-09-27T05:47:25.436Z,11.80
2017-09-27T05:49:54.034Z,12.00
2017-09-27T05:52:21.941Z,12.00
2017-09-27T05:54:49.497Z,12.20
2017-09-27T05:57:17.070Z,12.40
2017-09-27T05:59:44.592Z,12.60
2017-09-27T06:02:12.194Z,12.60
2017-09-27T06:04:40.628Z,12.80
2017-09-27T06:07:08.163Z,12.80
2017-09-27T06:09:35.887Z,13.00
2017-09-27T06:12:04.183Z,13.10
2017-09-27T06:14:31.712Z,13.10
2017-09-27T06:16:59.288Z,13.00
2017-09-27T06:19:26.869Z,13.00
2017-09-27T06:21:54.445Z,13.00
2017-09-27T06:24:22.021Z,13.00
2017-09-27T06:26:49.574Z,12.80
2017-09-27T06:29:17.116Z,13.00
2017-09-27T06:31:44.667Z,13.20
2017-09-27T06:34:12.217Z,13.30
2017-09-27T06:36:39.776Z,13.20
2017-09-27T06:39:07.314Z,13.20
2017-09-27T06:41:34.930Z,13.20
2017-09-27T06:44:02.492Z,13.20
2017-09-27T06:46:30.035Z,13.30
2017-09-27T06:48:57.604Z,13.30
2017-09-27T06:51:25.171Z,13.30
2017-09-27T06:53:52.737Z,13.30
2017-09-27T06:56:20.278Z,13.30
2017-09-27T06:58:47.863Z,13.40
2017-09-27T07:01:16.171Z,13.30
2017-09-27T07:03:43.729Z,13.20
2017-09-27T07:06:11.324Z,13.20
2017-09-27T07:08:38.843Z,13.30
2017-09-27T07:11:06.381Z,13.30
2017-09-27T07:13:34.711Z,13.40
2017-09-27T07:16:02.243Z,13.30
2017-09-27T07:18:29.873Z,13.50
2017-09-27T07:20:57.417Z,13.70
2017-09-27T07:23:24.977Z,13.60
2017-09-27T07:25:52.577Z,13.70
2017-09-27T07:28:20.116Z,13.80
2017-09-27T07:30:47.667Z,14.00
2017-09-27T07:33:15.251Z,14.20
2017-09-27T07:35:42.780Z,14.30
2017-09-27T07:38:11.103Z,14.40
2017-09-27T07:40:38.732Z,14.40
2017-09-27T07:43:07.048Z,14.60
2017-09-27T07:45:34.576Z,14.60
2017-09-27T07:48:02.157Z,14.70
2017-09-27T07:50:29.687Z,14.70
2017-09-27T07:52:57.220Z,15.00
2017-09-27T07:55:25.605Z,15.00
2017-09-27T07:57:53.527Z,14.90
2017-09-27T08:00:21.118Z,15.00
2017-09-27T08:02:48.855Z,15.00
2017-09-27T08:05:16.602Z,15.00
2017-09-27T08:07:44.456Z,15.00
2017-09-27T08:10:12.310Z,15.10
2017-09-27T08:12:40.025Z,15.20
2017-09-27T08:15:08.544Z,15.20
2017-09-27T08:17:36.167Z,15.10
2017-09-27T08:20:03.684Z,15.00
2017-09-27T08:22:31.212Z,15.00
2017-09-27T08:24:59.576Z,15.20
2017-09-27T08:27:27.901Z,15.10
2017-09-27T08:29:55.455Z,15.00
2017-09-27T08:32:23.027Z,15.00
2017-09-27T08:34:50.614Z,15.00
2017-09-27T08:37:18.406Z,14.90
2017-09-27T08:39:46.119Z,15.00
2017-09-27T08:42:13.749Z,15.00
2017-09-27T08:44:41.337Z,15.00
2017-09-27T08:47:09.741Z,15.10
2017-09-27T08:49:38.237Z,15.10
2017-09-27T08:52:05.788Z,15.10
2017-09-27T08:54:34.129Z,15.20
2017-09-27T08:57:01.842Z,15.10
2017-09-27T08:59:29.463Z,15.10
2017-09-27T09:01:57.804Z,15.00
2017-09-27T09:04:25.392Z,15.00
2017-09-27T09:06:53.009Z,15.20
2017-09-27T09:09:21.502Z,15.40
2017-09-27T09:11:49.111Z,15.50
2017-09-27T09:14:16.666Z,15.80
2017-09-27T09:16:44.996Z,15.90
2017-09-27T09:19:12.637Z,15.80
2017-09-27T09:21:40.318Z,16.00
2017-09-27T09:24:07.916Z,16.10
2017-09-27T09:26:36.329Z,16.20
2017-09-27T09:29:03.986Z,16.20
2017-09-27T09:31:31.548Z,16.30
2017-09-27T09:33:59.116Z,16.40
2017-09-27T09:36:26.751Z,16.60
2017-09-27T09:38:54.304Z,16.70
2017-09-27T09:41:22.699Z,16.70
2017-09-27T09:43:50.303Z,16.60
2017-09-27T09:46:17.848Z,16.80
2017-09-27T09:48:45.383Z,17.00
2017-09-27T09:51:12.980Z,17.00
2017-09-27T09:53:40.542Z,17.10
2017-09-27T09:56:08.149Z,17.10
2017-09-27T09:58:35.930Z,17.50
2017-09-27T10:01:03.534Z,17.70
2017-09-27T10:03:31.092Z,18.00
2017-09-27T10:05:59.473Z,18.70
2017-09-27T10:08:27.113Z,18.60
2017-09-27T10:10:54.691Z,19.00
2017-09-27T10:13:22.240Z,18.80
2017-09-27T10:15:49.874Z,18.70
2017-09-27T10:18:17.494Z,18.70
2017-09-27T10:20:45.124Z,18.80
2017-09-27T10:23:14.507Z,18.80
2017-09-27T10:25:42.299Z,18.90
2017-09-27T10:28:09.869Z,18.90
2017-09-27T10:30:38.215Z,18.70
2017-09-27T10:33:05.878Z,18.60
2017-09-27T10:35:34.449Z,18.70
2017-09-27T10:38:02.021Z,18.60
2017-09-27T10:40:29.748Z,18.80
2017-09-27T10:42:57.339Z,18.80
2017-09-27T10:45:24.997Z,18.80
2017-09-27T10:47:52.644Z,18.70
2017-09-27T10:50:20.391Z,18.90
2017-09-27T10:52:48.114Z,18.90
2017-09-27T10:55:15.711Z,18.90
2017-09-27T10:57:43.307Z,18.90
2017-09-27T11:00:10.884Z,18.80
2017-09-27T11:02:39.289Z,18.60
2017-09-27T11:05:06.978Z,18.60
2017-09-27T11:07:34.642Z,18.70
2017-09-27T11:10:02.233Z,18.70
2017-09-27T11:12:30.678Z,18.80
2017-09-27T11:14:58.286Z,18.80
2017-09-27T11:17:25.831Z,19.00
2017-09-27T11:19:53.444Z,19.00
2017-09-27T11:22:20.967Z,19.10
2017-09-27T11:24:49.371Z,19.00
2017-09-27T11:27:16.929Z,18.90
2017-09-27T11:29:44.500Z,18.90
2017-09-27T11:32:12.028Z,19.00
2017-09-27T11:34:39.632Z,19.00
2017-09-27T11:37:07.196Z,19.10
2017-09-27T11:39:34.721Z,19.20
2017-09-27T11:42:02.317Z,19.30
2017-09-27T11:44:29.880Z,19.30
2017-09-27T11:46:57.461Z,19.40
2017-09-27T11:49:25.025Z,19.40
2017-09-27T11:51:53.344Z,19.70
2017-09-27T11:54:20.963Z,19.70
2017-09-27T11:56:49.261Z,20.00
2017-09-27T11:59:16.871Z,20.00
2017-09-27T12:01:44.636Z,20.30
2017-09-27T12:04:12.172Z,20.80
2017-09-27T12:06:39.697Z,21.00
2017-09-27T12:09:07.362Z,21.30
2017-09-27T12:11:35.125Z,21.20
2017-09-27T12:14:02.972Z,21.00
2017-09-27T12:16:30.671Z,20.90
2017-09-27T12:18:58.458Z,20.80
2017-09-27T12:21:26.642Z,20.50
2017-09-27T12:23:54.531Z,20.40
2017-09-27T12:26:22.730Z,20.30
2017-09-27T12:28:51.477Z,20.40
2017-09-27T12:31:19.379Z,20.40
2017-09-27T12:33:48.130Z,20.60
2017-09-27T12:36:16.706Z,20.70
2017-09-27T12:38:44.578Z,20.70
2017-09-27T12:41:12.255Z,20.70
2017-09-27T12:43:39.944Z,21.00
2017-09-27T12:46:07.508Z,21.20
2017-09-27T12:48:35.241Z,21.30
2017-09-27T12:51:03.075Z,21.20
2017-09-27T12:53:30.750Z,21.10
2017-09-27T12:55:58.680Z,20.90
2017-09-27T12:58:26.519Z,20.90
2017-09-27T13:00:54.282Z,20.70
2017-09-27T13:03:22.012Z,20.60
2017-09-27T13:05:49.649Z,20.40
2017-09-27T13:08:17.202Z,20.40
2017-09-27T13:10:45.096Z,20.20
2017-09-27T13:13:13.636Z,19.80
2017-09-27T13:15:42.209Z,19.80
2017-09-27T13:18:09.833Z,19.70
2017-09-27T13:20:37.481Z,19.80
2017-09-27T13:23:05.108Z,19.80
2017-09-27T13:25:33.441Z,19.90
2017-09-27T13:28:01.061Z,19.80
2017-09-27T13:30:28.791Z,19.90
2017-09-27T13:32:57.716Z,20.10
2017-09-27T13:35:26.089Z,20.10
2017-09-27T13:38:03.848Z,20.00
2017-09-27T13:40:31.606Z,19.90
2017-09-27T13:42:59.353Z,19.80
2017-09-27T13:45:26.965Z,19.70
2017-09-27T13:47:54.586Z,19.70
2017-09-27T13:50:22.117Z,19.90
2017-09-27T13:52:49.683Z,20.10
2017-09-27T13:55:17.266Z,20.00
2017-09-27T13:57:44.807Z,19.90
2017-09-27T14:00:12.417Z,19.90
2017-09-27T14:02:40.081Z,19.90
2017-09-27T14:05:08.396Z,19.90
2017-09-27T14:07:35.924Z,19.90
2017-09-27T14:10:04.248Z,20.00
2017-09-27T14:12:31.806Z,19.90
2017-09-27T14:14:59.465Z,19.90
2017-09-27T14:17:27.005Z,19.90
2017-09-27T14:19:54.581Z,19.90
2017-09-27T14:22:22.149Z,19.70
2017-09-27T14:24:49.785Z,19.60
2017-09-27T14:27:24.446Z,19.60
2017-09-27T14:29:52.197Z,19.50
2017-09-27T14:32:19.767Z,19.50
2017-09-27T14:34:47.301Z,19.40
2017-09-27T14:37:14.865Z,19.30
2017-09-27T14:39:48.328Z,19.40
2017-09-27T14:42:18.872Z,19.50
2017-09-27T14:44:52.082Z,19.40
2017-09-27T14:47:20.742Z,19.30
2017-09-27T14:49:48.487Z,19.30
2017-09-27T14:52:21.067Z,19.40
2017-09-27T14:54:48.863Z,19.40
2017-09-27T14:57:24.663Z,19.40
2017-09-27T14:59:52.359Z,19.60
2017-09-27T15:02:19.912Z,19.50
2017-09-27T15:04:50.456Z,19.60
2017-09-27T15:07:21.830Z,19.50
2017-09-27T15:09:49.915Z,19.50
2017-09-27T15:15:15.375Z,19.40
2017-09-27T15:17:43.687Z,19.30
2017-09-27T15:20:11.218Z,19.20
2017-09-27T15:22:39.596Z,19.10
2017-09-27T15:25:07.165Z,19.10
2017-09-27T15:27:34.745Z,19.20
2017-09-27T15:30:02.361Z,19.20
2017-09-27T15:32:29.890Z,19.30
2017-09-27T15:35:07.966Z,19.30
2017-09-27T15:40:52.710Z,19.10
2017-09-27T15:43:43.960Z,19.10
2017-09-27T15:52:01.544Z,19.20
2017-09-27T15:54:29.863Z,19.20
2017-09-27T15:56:57.373Z,19.10
2017-09-27T15:59:25.736Z,19.30
2017-09-27T16:01:53.301Z,19.30
2017-09-27T16:04:20.855Z,19.20
2017-09-27T16:06:48.521Z,19.30
2017-09-27T16:09:16.059Z,19.40
2017-09-27T16:11:43.680Z,19.30
2017-09-27T16:14:11.230Z,19.40
2017-09-27T16:16:39.546Z,19.30
2017-09-27T16:19:07.084Z,19.30
2017-09-27T16:21:35.403Z,19.20
2017-09-27T16:24:03.000Z,19.20
2017-09-27T16:26:30.537Z,19.10
2017-09-27T16:28:58.102Z,19.30
2017-09-27T16:31:25.647Z,19.20
2017-09-27T16:33:53.165Z,19.20
2017-09-27T16:36:20.714Z,18.90
2017-09-27T16:38:48.220Z,19.00
2017-09-27T16:41:15.788Z,18.90
2017-09-27T16:43:43.340Z,18.70
2017-09-27T16:46:10.877Z,18.60
2017-09-27T16:48:38.604Z,18.30
2017-09-27T16:51:06.916Z,18.20
2017-09-27T16:53:34.463Z,18.20
2017-09-27T16:56:01.979Z,18.00
2017-09-27T16:58:29.549Z,18.00
2017-09-27T17:00:57.058Z,17.80
2017-09-27T17:03:24.673Z,17.70
2017-09-27T17:05:53.005Z,17.40
2017-09-27T17:08:20.538Z,17.30
2017-09-27T17:10:48.069Z,17.40
2017-09-27T17:13:15.636Z,17.30
2017-09-27T17:15:44.021Z,17.30
2017-09-27T17:18:12.298Z,17.20
2017-09-27T17:20:40.625Z,17.10
2017-09-27T17:23:08.147Z,17.10
2017-09-27T17:25:36.468Z,16.70
2017-09-27T17:28:04.017Z,16.70
2017-09-27T17:30:31.533Z,16.60
2017-09-27T17:32:59.876Z,16.50
2017-09-27T17:35:27.412Z,16.40
2017-09-27T17:37:54.965Z,16.60
2017-09-27T17:40:22.504Z,16.30
2017-09-27T17:42:50.809Z,16.10
2017-09-27T17:45:18.351Z,16.10
2017-09-27T17:47:45.884Z,15.90
2017-09-27T17:50:13.406Z,15.90
2017-09-27T17:52:40.957Z,16.20
2017-09-27T17:55:08.488Z,16.10
2017-09-27T17:57:36.057Z,15.90
2017-09-27T18:00:03.576Z,15.70
2017-09-27T18:02:31.155Z,15.50
2017-09-27T18:05:15.243Z,15.50
2017-09-27T18:07:52.327Z,15.40
2017-09-27T18:10:25.596Z,15.40
2017-09-27T18:12:56.780Z,15.50
2017-09-27T18:15:30.028Z,15.40
2017-09-27T18:18:00.887Z,15.40
2017-09-27T18:20:28.453Z,15.30
2017-09-27T18:22:55.964Z,15.40
2017-09-27T18:25:23.545Z,15.50
2017-09-27T18:27:51.819Z,15.30
2017-09-27T18:30:20.127Z,15.10
2017-09-27T18:32:47.809Z,15.10
2017-09-27T18:35:15.311Z,15.30
2017-09-27T18:37:42.864Z,15.20
2017-09-27T18:40:10.377Z,15.00
2017-09-27T18:42:37.891Z,14.90
2017-09-27T18:45:06.224Z,15.10
2017-09-27T18:47:33.798Z,15.00
2017-09-27T18:50:01.326Z,15.00
2017-09-27T18:52:28.879Z,15.00
2017-09-27T18:54:56.438Z,15.00
2017-09-27T18:57:23.961Z,14.90
2017-09-27T18:59:51.529Z,14.60
2017-09-27T19:02:19.039Z,14.40
2017-09-27T19:04:46.572Z,14.50
2017-09-27T19:07:14.136Z,14.50
2017-09-27T19:09:41.659Z,14.60
2017-09-27T19:12:09.177Z,14.50
2017-09-27T19:14:36.725Z,14.60
2017-09-27T19:17:04.248Z,14.60
2017-09-27T19:19:31.800Z,14.60
2017-09-27T19:21:59.332Z,14.50
2017-09-27T19:24:26.876Z,14.40
2017-09-27T19:26:54.671Z,14.30
2017-09-27T19:29:22.188Z,14.30
2017-09-27T19:31:49.705Z,14.10
2017-09-27T19:34:17.260Z,14.10
2017-09-27T19:36:44.778Z,14.20
2017-09-27T19:39:12.337Z,14.20
2017-09-27T19:41:39.879Z,14.10
2017-09-27T19:44:07.392Z,13.90
2017-09-27T19:46:34.952Z,14.00
2017-09-27T19:49:02.479Z,14.10
2017-09-27T19:51:29.998Z,14.00
2017-09-27T19:53:58.326Z,13.90
2017-09-27T19:56:25.896Z,13.90
2017-09-27T19:58:53.463Z,14.10
2017-09-27T20:01:21.041Z,14.00
2017-09-27T20:03:48.556Z,14.00
2017-09-27T20:06:16.140Z,14.00
2017-09-27T20:08:43.688Z,13.80
2017-09-27T20:11:11.207Z,13.90
2017-09-27T20:13:39.540Z,13.60
2017-09-27T20:16:07.055Z,13.60
2017-09-27T20:18:35.409Z,13.60
2017-09-27T20:21:02.960Z,13.50
2017-09-27T20:23:30.480Z,13.60
2017-09-27T20:25:58.014Z,13.70
2017-09-27T20:28:25.578Z,13.60
2017-09-27T20:30:53.117Z,13.70
2017-09-27T20:33:20.873Z,13.60
2017-09-27T20:35:48.579Z,13.50
2017-09-27T20:38:16.217Z,13.40
2017-09-27T20:40:44.536Z,13.50
2017-09-27T20:43:12.220Z,13.40
2017-09-27T20:45:40.731Z,13.40
2017-09-27T20:48:08.443Z,13.40
2017-09-27T20:50:36.007Z,13.30
2017-09-27T20:53:03.568Z,13.20
2017-09-27T20:55:31.190Z,13.20
2017-09-27T20:57:58.798Z,13.10
2017-09-27T21:00:26.353Z,13.10
2017-09-27T21:02:53.952Z,13.30
2017-09-27T21:05:21.537Z,13.50
2017-09-27T21:07:49.240Z,13.20
2017-09-27T21:10:16.837Z,13.20
2017-09-27T21:12:44.600Z,13.10
2017-09-27T21:15:12.212Z,13.10
2017-09-27T21:17:39.804Z,13.20
2017-09-27T21:20:07.397Z,13.20
2017-09-27T21:22:35.143Z,13.10
2017-09-27T21:25:02.689Z,13.20
2017-09-27T21:27:30.292Z,13.10
2017-09-27T21:29:58.609Z,13.10
2017-09-27T21:32:26.147Z,13.10
2017-09-27T21:34:53.791Z,13.20
2017-09-27T21:37:22.142Z,13.00
2017-09-27T21:39:49.689Z,13.00
2017-09-27T21:42:17.253Z,13.00
2017-09-27T21:44:44.968Z,12.80
2017-09-27T21:47:12.507Z,13.00
2017-09-27T21:49:40.156Z,13.10
2017-09-27T21:52:07.738Z,13.10
2017-09-27T21:54:35.324Z,13.10
